Sandspit, Canada
Current Conditions -  °F | °C
As of 7:00 AM on Sunday 21 Dec 2014 (Local Time) from CYZP Reporting Station
Clear Clear  
Wind Chill: 34°   Ceiling: Unl
Heat Index: 39°   Visibility: 9mi
Dew Point: 37°   Wind: 8mph
Humidity: 93%   Direction: 150°SSE
Pressure: 29.43"   Gusts: NA
Location:  53.25°N, 131.82°W
Report Text: CYZP 211500Z AUTO 15007KT 9SM CLR 04/03 A2943 RMK SLP964
Loading
Personal Weather Stations






























Interactive Weather Map New forecast layout! Learn more

10-Day Weather Forecast

Advertisements
Track Severe Weather on mobile